Euskara    
Meteorología y climatología de Navarra
Datos de la estación - Meteo Navarra

Estación de Aralar GN

Altitud 1344 m.


Datos desde el 18/10/2020 hasta el 19/10/2020 en horario solar
Los datos son PROVISIONALES

Anterior Página 1 de 1 Siguiente Descargar: Formato para Excel 2000 o superior   Formato csv   Formato para OpenOffice Calc
Fecha Temperatura Humedad relativa Radiación global Insolación Precipitación Vel. viento 10 m Vel. viento 10 m Dir. viento 10 m
°C % W/m² s l/m² m/s km/h °
18/10/2020 0:00 7.3 55 0.0 0 0.0 7.5 26.9 310
18/10/2020 0:10 7.3 55 0.0 0 0.0 6.7 24.2 310
18/10/2020 0:20 7.4 55 0.0 0 0.0 6.5 23.3 308
18/10/2020 0:30 7.4 55 0.0 0 0.0 6.5 23.3 308
18/10/2020 0:40 7.5 53 0.0 0 0.0 5.9 21.3 309
18/10/2020 0:50 7.7 49 0.0 0 0.0 5.7 20.6 310
18/10/2020 1:00 7.8 46 0.0 0 0.0 5.8 20.8 312
18/10/2020 1:10 8.1 41 0.0 0 0.0 5.3 19.2 316
18/10/2020 1:20 7.9 38 0.0 0 0.0 3.9 14.2 325
18/10/2020 1:30 8.0 38 0.0 0 0.0 4.3 15.5 321
18/10/2020 1:40 8.0 38 0.0 0 0.0 4.5 16.3 318
18/10/2020 1:50 8.0 37 0.0 0 0.0 4.7 17.1 317
18/10/2020 2:00 8.0 39 0.0 0 0.0 4.6 16.7 318
18/10/2020 2:10 8.0 39 0.0 0 0.0 3.9 14.1 320
18/10/2020 2:20 7.9 38 0.0 0 0.0 3.7 13.3 321
18/10/2020 2:30 8.1 36 0.0 0 0.0 3.1 11.1 321
18/10/2020 2:40 8.0 37 0.0 0 0.0 3.5 12.7 325
18/10/2020 2:50 8.0 37 0.0 0 0.0 3.6 13.0 330
18/10/2020 3:00 7.9 39 0.0 0 0.0 4.2 15.2 331
18/10/2020 3:10 7.9 40 0.0 0 0.0 4.3 15.6 332
18/10/2020 3:20 7.8 41 0.0 0 0.0 4.5 16.0 333
18/10/2020 3:30 7.8 40 0.0 0 0.0 4.0 14.3 331
18/10/2020 3:40 7.9 40 0.0 0 0.0 4.1 14.6 334
18/10/2020 3:50 8.0 38 0.0 0 0.0 3.1 11.1 329
18/10/2020 4:00 8.2 34 0.0 0 0.0 2.5 9.1 325
18/10/2020 4:10 8.4 28 0.0 0 0.0 3.4 12.4 327
18/10/2020 4:20 8.4 25 0.0 0 0.0 4.4 15.7 332
18/10/2020 4:30 8.4 21 0.0 0 0.0 4.5 16.1 336
18/10/2020 4:40 8.6 19 0.0 0 0.0 4.3 15.3 335
18/10/2020 4:50 8.7 18 0.0 0 0.0 4.1 14.7 339
18/10/2020 5:00 8.8 17 0.0 0 0.0 3.3 11.8 335
18/10/2020 5:10 8.9 17 0.0 0 0.0 3.0 10.8 335
18/10/2020 5:20 8.9 17 0.0 0 0.0 2.8 10.2 332
18/10/2020 5:30 9.2 17 0.0 0 0.0 3.0 10.6 330
18/10/2020 5:40 9.2 17 0.0 0 0.0 3.9 14.0 335
18/10/2020 5:50 9.2 17 0.0 0 0.0 4.4 15.9 337
18/10/2020 6:00 9.2 17 0.0 0 0.0 3.5 12.6 335
18/10/2020 6:10 9.3 17 0.0 0 0.0 3.6 13.1 336
18/10/2020 6:20 9.4 17 0.0 0 0.0 4.3 15.3 335
18/10/2020 6:30 9.4 17 0.0 0 0.0 4.4 15.8 334
18/10/2020 6:40 9.7 17 14.9 0 0.0 4.5 16.1 337
18/10/2020 6:50 9.8 18 32.2 426 0.0 4.4 15.8 339
18/10/2020 7:00 9.9 17 45.8 600 0.0 4.1 14.8 340
18/10/2020 7:10 10.0 18 48.6 56 0.0 3.7 13.4 338
18/10/2020 7:20 10.1 19 53.8 0 0.0 4.3 15.4 346
18/10/2020 7:30 10.2 30 72.1 0 0.0 3.9 13.9 346
18/10/2020 7:40 10.1 34 101.1 196 0.0 3.9 14.1 346
18/10/2020 7:50 10.7 45 203.8 600 0.0 3.3 11.9 340
18/10/2020 8:00 10.8 49 185.7 600 0.0 3.2 11.4 338
18/10/2020 8:10 10.9 51 172.7 482 0.0 3.2 11.4 338
18/10/2020 8:20 11.0 55 261.8 600 0.0 2.9 10.5 341
18/10/2020 8:30 11.4 55 364.4 600 0.0 2.4 8.6 338
18/10/2020 8:40 12.1 55 407.0 600 0.0 1.8 6.4 336
18/10/2020 8:50 12.2 53 394.8 600 0.0 1.9 6.7 331
18/10/2020 9:00 12.4 48 204.7 178 0.0 1.6 5.9 330
18/10/2020 9:10 11.5 47 213.2 128 0.0 2.5 9.0 329
18/10/2020 9:20 11.7 49 352.0 600 0.0 2.0 7.1 327
18/10/2020 9:30 12.3 48 406.2 600 0.0 2.2 7.9 340
18/10/2020 9:40 12.8 49 499.0 600 0.0 1.9 7.0 339
18/10/2020 9:50 12.7 49 350.3 600 0.0 2.2 8.0 333
18/10/2020 10:00 12.3 51 425.4 600 0.0 1.8 6.6 334
18/10/2020 10:10 12.8 51 541.5 600 0.0 2.4 8.5 341
18/10/2020 10:20 13.2 50 623.6 600 0.0 1.8 6.6 338
18/10/2020 10:30 12.4 51 501.9 600 0.0 1.7 6.0 341
18/10/2020 10:40 12.4 51 606.2 600 0.0 1.2 4.5 353
18/10/2020 10:50 12.3 52 642.7 600 0.0 1.4 5.1 41
18/10/2020 11:00 12.7 51 652.1 600 0.0 1.3 4.5 49
18/10/2020 11:10 12.9 49 659.6 600 0.0 0.6 2.2 132
18/10/2020 11:20 13.0 48 667.7 600 0.0 0.9 3.3 34
18/10/2020 11:30 12.7 51 672.9 600 0.0 1.3 4.5 16
18/10/2020 11:40 12.6 53 676.0 600 0.0 1.1 4.0 33
18/10/2020 11:50 12.7 53 679.9 600 0.0 0.8 3.0 191
18/10/2020 12:00 13.2 52 671.8 600 0.0 0.9 3.1 232
18/10/2020 12:10 13.6 51 682.2 600 0.0 1.5 5.4 214
18/10/2020 12:20 13.6 51 672.1 600 0.0 1.1 4.1 218
18/10/2020 12:30 13.8 52 655.1 600 0.0 1.1 3.9 194
18/10/2020 12:40 14.3 52 658.2 600 0.0 2.0 7.2 158
18/10/2020 12:50 14.0 50 627.7 600 0.0 1.9 6.7 205
18/10/2020 13:00 13.7 47 638.0 600 0.0 0.7 2.6 253
18/10/2020 13:10 13.6 50 619.0 600 0.0 1.1 3.8 177
18/10/2020 13:20 14.3 48 638.7 600 0.0 1.3 4.6 175
18/10/2020 13:30 14.1 51 606.6 600 0.0 1.3 4.6 187
18/10/2020 13:40 14.9 48 588.6 600 0.0 2.3 8.4 204
18/10/2020 13:50 14.5 52 584.5 600 0.0 1.8 6.6 162
18/10/2020 14:00 14.3 53 548.2 600 0.0 1.6 5.9 180
18/10/2020 14:10 14.4 54 499.6 600 0.0 0.7 2.7 175
18/10/2020 14:20 14.0 54 406.2 594 0.0 1.4 5.1 176
18/10/2020 14:30 13.8 55 271.0 346 0.0 1.4 5.1 156
18/10/2020 14:40 13.4 56 407.8 600 0.0 1.0 3.4 169
18/10/2020 14:50 13.4 56 309.8 546 0.0 1.2 4.3 155
18/10/2020 15:00 13.0 58 342.1 600 0.0 2.0 7.1 143
18/10/2020 15:10 12.6 58 253.6 466 0.0 2.5 8.9 147
18/10/2020 15:20 12.3 57 257.6 524 0.0 2.2 7.8 146
18/10/2020 15:30 12.6 55 272.6 600 0.0 2.3 8.2 151
18/10/2020 15:40 12.7 57 219.1 600 0.0 2.5 9.1 153
18/10/2020 15:50 12.5 58 155.3 516 0.0 2.4 8.6 155
18/10/2020 16:00 12.2 59 192.8 600 0.0 2.5 8.9 150
18/10/2020 16:10 12.0 60 166.1 600 0.0 2.1 7.6 149
18/10/2020 16:20 12.2 59 158.5 600 0.0 2.2 7.9 157
18/10/2020 16:30 12.1 59 126.0 600 0.0 2.3 8.3 156
18/10/2020 16:40 11.7 59 95.1 600 0.0 1.6 5.6 144
18/10/2020 16:50 11.6 60 67.5 600 0.0 2.2 7.7 148
18/10/2020 17:00 11.5 61 41.0 518 0.0 2.2 7.7 147
18/10/2020 17:10 11.3 62 7.2 0 0.0 2.4 8.6 155
18/10/2020 17:20 10.9 63 0.0 0 0.0 2.3 8.3 158
18/10/2020 17:30 10.9 64 0.0 0 0.0 1.8 6.6 155
18/10/2020 17:40 11.1 63 0.0 0 0.0 2.1 7.5 156
18/10/2020 17:50 10.9 64 0.0 0 0.0 2.4 8.5 162
18/10/2020 18:00 10.7 65 0.0 0 0.0 2.5 8.8 160
18/10/2020 18:10 10.7 65 0.0 0 0.0 2.6 9.3 165
18/10/2020 18:20 10.9 66 0.0 0 0.0 2.7 9.6 172
18/10/2020 18:30 10.8 67 0.0 0 0.0 2.8 10.2 176
18/10/2020 18:40 10.6 69 0.0 0 0.0 3.0 10.8 178
18/10/2020 18:50 10.6 70 0.0 0 0.0 3.1 11.2 175
18/10/2020 19:00 10.5 71 0.0 0 0.0 3.7 13.3 178
18/10/2020 19:10 10.6 71 0.0 0 0.0 4.0 14.4 180
18/10/2020 19:20 10.6 71 0.0 0 0.0 4.3 15.4 184
18/10/2020 19:30 10.6 71 0.0 0 0.0 4.2 15.0 181
18/10/2020 19:40 10.7 71 0.0 0 0.0 4.3 15.6 185
18/10/2020 19:50 10.6 71 0.0 0 0.0 4.6 16.7 188
18/10/2020 20:00 10.7 71 0.0 0 0.0 4.5 16.2 190
18/10/2020 20:10 10.8 70 0.0 0 0.0 4.4 15.8 189
18/10/2020 20:20 10.7 70 0.0 0 0.0 4.7 17.0 189
18/10/2020 20:30 10.6 69 0.0 0 0.0 4.4 15.9 183
18/10/2020 20:40 10.7 66 0.0 0 0.0 4.4 15.9 181
18/10/2020 20:50 10.5 64 0.0 0 0.0 5.7 20.5 186
18/10/2020 21:00 10.5 63 0.0 0 0.0 5.9 21.1 182
18/10/2020 21:10 10.5 62 0.0 0 0.0 6.0 21.6 181
18/10/2020 21:20 10.4 62 0.0 0 0.0 6.1 21.9 180
18/10/2020 21:30 10.4 61 0.0 0 0.0 7.3 26.3 185
18/10/2020 21:40 10.6 59 0.0 0 0.0 7.9 28.5 192
18/10/2020 21:50 10.6 58 0.0 0 0.0 8.3 29.7 190
18/10/2020 22:00 10.6 58 0.0 0 0.0 7.0 25.3 184
18/10/2020 22:10 10.6 59 0.0 0 0.0 7.5 26.9 179
18/10/2020 22:20 10.3 59 0.0 0 0.0 6.9 24.9 189
18/10/2020 22:30 10.5 58 0.0 0 0.0 6.1 22.0 186
18/10/2020 22:40 10.3 59 0.0 0 0.0 6.4 23.1 174
18/10/2020 22:50 9.3 61 0.0 0 0.0 7.3 26.3 167
18/10/2020 23:00 9.0 62 0.0 0 0.0 7.7 27.6 169
18/10/2020 23:10 8.8 61 0.0 0 0.0 8.1 29.3 167
18/10/2020 23:20 8.5 62 0.0 0 0.0 8.0 28.7 169
18/10/2020 23:30 8.4 62 0.0 0 0.0 8.3 29.9 173
18/10/2020 23:40 8.4 62 0.0 0 0.0 7.7 27.7 170
18/10/2020 23:50 8.4 62 0.0 0 0.0 8.5 30.6 168
Anterior Página 1 de 1 Siguiente
Los datos de precipitación registrados en estaciones que están en cumbres son inferiores a lo real, como consecuencia del efecto del viento y de la nieve.


NOTA: Tipo de datos según el color:
   - Valores diarios o 10 minutos correctos
   - Valores diarios calculados a partir de un número de datos 10 minutos menor que 144 y mayor que 120, o de un número de datos semihorarios menor que 48 y mayor que 40 (caso de las estaciones de INTIA Y Ministerio)
   - Valores diez minutos estimados


Contacto        Enlaces        Aviso legal